Almond, Alabama
Current Conditions -  °F | °C
As of 3:55 PM on Monday 20 Oct 2014 (Local Time) from KLGC Reporting Station
Scattered Clouds Scattered Clouds  
Wind Chill: 76°   Ceiling: Unl
Heat Index: 78°   Visibility: 10mi
Dew Point: 56°   Wind: 3mph
Humidity: 49%   Direction: 200°SSW
Pressure: 30"   Gusts: NA
Location:  33.1661°N, 85.5111°W
Report Text: KLGC 202055Z AUTO 20003KT 10SM SCT047 25/13 A3000 RMK AO2 T02470132
Loading
Personal Weather Stations






























Interactive Weather Map
Tropical Storm Tracking
New forecast layout! Learn more

10-Day Weather Forecast

Advertisements
Track Severe Weather on mobile